createdAt,value
2017-11-05T00:02:20.997Z,11.80
2017-11-05T00:04:50.203Z,11.57
2017-11-05T00:07:19.424Z,10.63
2017-11-05T00:09:48.643Z,9.93
2017-11-05T00:12:17.931Z,11.63
2017-11-05T00:14:47.899Z,11.70
2017-11-05T00:17:17.177Z,10.03
2017-11-05T00:19:46.422Z,11.57
2017-11-05T00:22:15.645Z,11.27
2017-11-05T00:24:45.636Z,10.37
2017-11-05T00:27:15.651Z,12.33
2017-11-05T00:29:45.658Z,11.47
2017-11-05T00:32:14.888Z,16.50
2017-11-05T00:34:44.892Z,12.80
2017-11-05T00:37:14.088Z,11.27
2017-11-05T00:39:44.108Z,12.20
2017-11-05T00:42:13.329Z,10.33
2017-11-05T00:44:42.547Z,11.23
2017-11-05T00:47:11.743Z,13.77
2017-11-05T00:49:40.971Z,12.17
2017-11-05T00:52:10.187Z,13.30
2017-11-05T00:54:40.209Z,14.77
2017-11-05T00:57:10.215Z,11.13
2017-11-05T00:59:39.437Z,11.97
2017-11-05T01:02:09.441Z,11.80
2017-11-05T01:04:39.411Z,14.03
2017-11-05T01:07:08.628Z,14.33
2017-11-05T01:09:37.844Z,14.10
2017-11-05T01:12:07.072Z,12.80
2017-11-05T01:14:36.295Z,14.10
2017-11-05T01:17:05.541Z,15.50
2017-11-05T01:19:34.736Z,15.70
2017-11-05T01:22:03.980Z,17.93
2017-11-05T01:24:33.229Z,15.23
2017-11-05T01:27:02.470Z,16.37
2017-11-05T01:29:31.775Z,17.73
2017-11-05T01:32:00.969Z,18.00
2017-11-05T01:34:30.224Z,19.60
2017-11-05T01:37:00.203Z,18.47
2017-11-05T01:39:30.202Z,19.83
2017-11-05T01:41:59.408Z,20.23
2017-11-05T01:44:28.585Z,19.60
2017-11-05T01:46:57.807Z,25.33
2017-11-05T01:49:27.012Z,19.47
2017-11-05T01:51:56.255Z,17.60
2017-11-05T01:54:26.236Z,19.80
2017-11-05T01:56:56.992Z,23.40
2017-11-05T01:59:26.204Z,18.33
2017-11-05T02:01:56.182Z,20.47
2017-11-05T02:04:25.372Z,19.27
2017-11-05T02:06:54.637Z,19.13
2017-11-05T02:09:23.815Z,18.77
2017-11-05T02:11:53.849Z,19.20
2017-11-05T02:14:23.144Z,21.93
2017-11-05T02:16:52.357Z,22.50
2017-11-05T02:19:21.591Z,24.50
2017-11-05T02:21:50.816Z,26.73
2017-11-05T02:24:20.930Z,23.63
2017-11-05T02:26:50.896Z,24.97
2017-11-05T02:29:20.122Z,23.53
2017-11-05T02:31:49.344Z,22.47
2017-11-05T02:34:19.323Z,22.73
2017-11-05T02:36:48.519Z,27.67
2017-11-05T02:39:18.765Z,20.90
2017-11-05T02:41:47.995Z,26.53
2017-11-05T02:44:17.227Z,22.60
2017-11-05T02:46:46.424Z,23.13
2017-11-05T02:49:15.632Z,24.10
2017-11-05T02:51:44.842Z,22.83
2017-11-05T02:54:14.085Z,23.73
2017-11-05T02:56:43.307Z,23.10
2017-11-05T02:59:12.516Z,24.17
2017-11-05T03:01:41.736Z,23.70
2017-11-05T03:04:10.944Z,29.40
2017-11-05T03:06:40.199Z,21.80
2017-11-05T03:09:09.395Z,23.83
2017-11-05T03:11:38.604Z,20.97
2017-11-05T03:14:07.824Z,23.13
2017-11-05T03:16:37.019Z,25.23
2017-11-05T03:19:06.217Z,20.73
2017-11-05T03:21:35.440Z,20.00
2017-11-05T03:24:05.425Z,17.13
2017-11-05T03:26:34.648Z,20.60
2017-11-05T03:29:04.617Z,18.73
2017-11-05T03:31:33.825Z,19.80
2017-11-05T03:34:03.019Z,18.57
2017-11-05T03:36:32.251Z,20.87
2017-11-05T03:39:02.220Z,17.10
2017-11-05T03:41:31.508Z,16.10
2017-11-05T03:44:00.827Z,18.70
2017-11-05T03:46:30.052Z,16.03
2017-11-05T03:48:59.252Z,16.80
2017-11-05T03:51:28.513Z,19.80
2017-11-05T03:53:57.711Z,15.83
2017-11-05T03:56:26.962Z,16.93
2017-11-05T03:58:56.979Z,15.73
2017-11-05T04:01:26.986Z,16.50
2017-11-05T04:03:57.001Z,15.23
2017-11-05T04:06:26.191Z,14.60
2017-11-05T04:08:55.408Z,11.43
2017-11-05T04:11:24.961Z,18.30
2017-11-05T04:13:54.155Z,13.60
2017-11-05T04:16:23.380Z,16.33
2017-11-05T04:18:52.644Z,17.60
2017-11-05T04:21:21.852Z,16.07
2017-11-05T04:23:51.123Z,12.97
2017-11-05T04:26:20.275Z,14.97
2017-11-05T04:28:50.992Z,18.33
2017-11-05T04:31:20.266Z,13.50
2017-11-05T04:33:49.480Z,17.40
2017-11-05T04:36:18.687Z,16.80
2017-11-05T04:38:47.947Z,17.57
2017-11-05T04:41:17.156Z,18.70
2017-11-05T04:43:46.376Z,15.97
2017-11-05T04:46:16.960Z,15.20
2017-11-05T04:48:47.217Z,14.70
2017-11-05T04:51:16.431Z,16.47
2017-11-05T04:53:45.635Z,16.23
2017-11-05T04:56:15.625Z,21.67
2017-11-05T04:58:44.838Z,17.67
2017-11-05T05:01:14.108Z,20.63
2017-11-05T05:03:43.300Z,18.33
2017-11-05T05:06:12.520Z,19.73
2017-11-05T05:08:41.726Z,20.63
2017-11-05T05:11:10.939Z,16.93
2017-11-05T05:13:40.140Z,17.97
2017-11-05T05:16:09.341Z,17.23
2017-11-05T05:18:38.542Z,17.70
2017-11-05T05:21:07.747Z,15.83
2017-11-05T05:23:37.708Z,16.70
2017-11-05T05:26:06.920Z,18.93
2017-11-05T05:28:36.127Z,18.30
2017-11-05T05:31:05.360Z,15.17
2017-11-05T05:33:35.455Z,16.10
2017-11-05T05:36:04.723Z,14.73
2017-11-05T05:38:33.957Z,14.70
2017-11-05T05:41:03.156Z,15.33
2017-11-05T05:43:32.376Z,20.67
2017-11-05T05:46:01.581Z,17.30
2017-11-05T05:48:30.784Z,13.60
2017-11-05T05:51:00.107Z,18.97
2017-11-05T05:53:29.316Z,17.50
2017-11-05T05:55:58.539Z,17.50
2017-11-05T05:58:27.748Z,17.87
2017-11-05T06:00:57.748Z,15.23
2017-11-05T06:03:26.968Z,16.53
2017-11-05T06:05:56.164Z,14.87
2017-11-05T06:08:26.144Z,20.53
2017-11-05T06:10:55.449Z,20.70
2017-11-05T06:13:25.432Z,18.50
2017-11-05T06:15:54.644Z,18.43
2017-11-05T06:18:23.859Z,19.57
2017-11-05T06:20:53.092Z,25.47
2017-11-05T06:23:23.075Z,19.47
2017-11-05T06:25:52.328Z,25.67
2017-11-05T06:28:21.545Z,21.03
2017-11-05T06:30:50.902Z,33.70
2017-11-05T06:33:20.877Z,29.63
2017-11-05T06:35:50.121Z,31.27
2017-11-05T06:38:19.357Z,32.87
2017-11-05T06:40:48.575Z,24.53
2017-11-05T06:43:17.782Z,21.20
2017-11-05T06:45:46.977Z,25.27
2017-11-05T06:48:16.164Z,25.90
2017-11-05T06:50:45.387Z,20.03
2017-11-05T06:53:14.580Z,20.67
2017-11-05T06:55:43.789Z,24.10
2017-11-05T06:58:13.758Z,19.87
2017-11-05T07:00:43.007Z,25.00
2017-11-05T07:03:13.060Z,22.70
2017-11-05T07:05:42.266Z,21.80
2017-11-05T07:08:11.464Z,20.23
2017-11-05T07:10:40.663Z,17.73
2017-11-05T07:13:09.915Z,25.23
2017-11-05T07:15:39.136Z,17.53
2017-11-05T07:18:08.360Z,24.97
2017-11-05T07:20:37.552Z,21.63
2017-11-05T07:23:06.828Z,16.60
2017-11-05T07:25:36.042Z,21.17
2017-11-05T07:28:05.240Z,14.47
2017-11-05T07:30:34.463Z,17.33
2017-11-05T07:33:03.672Z,17.33
2017-11-05T07:35:32.883Z,10.03
2017-11-05T07:38:02.104Z,11.47
2017-11-05T07:40:32.145Z,8.13
2017-11-05T07:43:01.337Z,10.80
2017-11-05T07:45:30.571Z,11.97
2017-11-05T07:47:59.759Z,12.70
2017-11-05T07:50:29.094Z,13.40
2017-11-05T07:52:59.071Z,13.63
2017-11-05T07:55:28.293Z,11.60
2017-11-05T07:57:57.509Z,9.30
2017-11-05T08:00:26.735Z,9.07
2017-11-05T08:02:55.930Z,8.20
2017-11-05T08:05:25.123Z,8.57
2017-11-05T08:07:54.385Z,8.70
2017-11-05T08:10:23.583Z,9.90
2017-11-05T08:12:52.826Z,7.60
2017-11-05T08:15:22.025Z,14.30
2017-11-05T08:17:51.240Z,10.00
2017-11-05T08:20:20.440Z,9.10
2017-11-05T08:22:50.383Z,11.73
2017-11-05T08:25:19.611Z,11.73
2017-11-05T08:27:49.624Z,10.30
2017-11-05T08:30:19.651Z,10.77
2017-11-05T08:32:48.873Z,10.50
2017-11-05T08:35:18.060Z,7.70
2017-11-05T08:37:47.306Z,11.07
2017-11-05T08:40:16.550Z,11.37
2017-11-05T08:42:45.745Z,9.77
2017-11-05T08:45:15.036Z,13.97
2017-11-05T08:47:44.264Z,10.00
2017-11-05T08:50:13.488Z,13.00
2017-11-05T08:52:42.681Z,8.07
2017-11-05T08:55:11.905Z,7.90
2017-11-05T08:57:41.119Z,13.17
2017-11-05T09:00:11.104Z,7.90
2017-11-05T09:02:40.353Z,9.10
2017-11-05T09:05:09.595Z,8.93
2017-11-05T09:07:38.902Z,9.47
2017-11-05T09:10:08.108Z,7.30
2017-11-05T09:12:37.328Z,6.03
2017-11-05T09:15:06.527Z,7.47
2017-11-05T09:17:36.027Z,7.10
2017-11-05T09:20:06.026Z,10.83
2017-11-05T09:22:35.237Z,8.23
2017-11-05T09:25:05.209Z,10.17
2017-11-05T09:27:34.610Z,7.20
2017-11-05T09:30:03.796Z,6.67
2017-11-05T09:32:33.027Z,8.27
2017-11-05T09:35:02.219Z,5.93
2017-11-05T09:37:31.424Z,8.03
2017-11-05T09:40:00.710Z,9.47
2017-11-05T09:42:30.201Z,9.53
2017-11-05T09:44:59.452Z,7.07
2017-11-05T09:47:29.460Z,5.00
2017-11-05T09:49:59.440Z,9.00
2017-11-05T09:52:28.762Z,7.30
2017-11-05T09:54:58.753Z,6.20
2017-11-05T09:57:27.967Z,7.00
2017-11-05T09:59:57.944Z,5.03
2017-11-05T10:02:27.944Z,5.27
2017-11-05T10:04:57.933Z,5.10
2017-11-05T10:07:27.864Z,3.27
2017-11-05T10:09:57.151Z,5.67
2017-11-05T10:12:26.379Z,4.80
2017-11-05T10:14:55.576Z,5.07
2017-11-05T10:17:24.816Z,5.53
2017-11-05T10:19:54.032Z,4.90
2017-11-05T10:22:24.016Z,5.10
2017-11-05T10:24:53.220Z,2.60
2017-11-05T10:27:22.426Z,3.00
2017-11-05T10:29:51.620Z,3.73
2017-11-05T10:32:20.863Z,4.07
2017-11-05T10:34:50.077Z,4.23
2017-11-05T10:37:19.275Z,5.13
2017-11-05T10:39:48.501Z,4.40
2017-11-05T10:42:17.739Z,4.20
2017-11-05T10:44:47.246Z,5.70
2017-11-05T10:47:16.426Z,2.90
2017-11-05T10:49:46.423Z,3.03
2017-11-05T10:52:15.657Z,4.83
2017-11-05T10:54:44.995Z,6.40
2017-11-05T10:57:14.196Z,6.00
2017-11-05T10:59:43.402Z,5.73
2017-11-05T11:02:12.716Z,8.03
2017-11-05T11:04:41.948Z,6.90
2017-11-05T11:07:12.022Z,4.17
2017-11-05T11:09:41.339Z,5.07
2017-11-05T11:12:10.603Z,6.87
2017-11-05T11:14:39.801Z,5.50
2017-11-05T11:17:09.052Z,7.07
2017-11-05T11:19:38.286Z,5.40
2017-11-05T11:22:07.480Z,5.90
2017-11-05T11:24:36.746Z,4.50
2017-11-05T11:27:05.951Z,7.50
2017-11-05T11:29:35.936Z,8.83
2017-11-05T11:32:05.224Z,5.97
2017-11-05T11:34:34.515Z,4.63
2017-11-05T11:37:03.713Z,9.00
2017-11-05T11:39:32.913Z,5.23
2017-11-05T11:42:02.138Z,4.17
2017-11-05T11:44:32.132Z,6.90
2017-11-05T11:47:02.215Z,6.00
2017-11-05T11:49:32.205Z,6.00
2017-11-05T11:52:01.412Z,4.33
2017-11-05T11:54:30.670Z,10.40
2017-11-05T11:56:59.865Z,18.53
2017-11-05T11:59:29.076Z,9.10
2017-11-05T12:01:58.330Z,6.77
2017-11-05T12:04:27.547Z,6.43
2017-11-05T12:06:56.759Z,7.60
2017-11-05T12:09:25.991Z,9.20
2017-11-05T12:11:55.264Z,7.40
2017-11-05T12:14:25.252Z,10.27
2017-11-05T12:16:54.490Z,10.17
2017-11-05T12:19:23.715Z,10.70
2017-11-05T12:21:52.931Z,8.90
2017-11-05T12:24:22.229Z,9.30
2017-11-05T12:26:51.408Z,8.33
2017-11-05T12:29:20.634Z,7.80
2017-11-05T12:31:49.853Z,10.33
2017-11-05T12:34:19.092Z,10.10
2017-11-05T12:36:49.076Z,11.60
2017-11-05T12:39:18.279Z,13.47
2017-11-05T12:41:47.467Z,10.47
2017-11-05T12:44:17.496Z,17.83
2017-11-05T12:46:47.705Z,14.70
2017-11-05T12:49:16.963Z,15.07
2017-11-05T12:51:46.155Z,16.70
2017-11-05T12:54:15.401Z,13.03
2017-11-05T12:56:45.584Z,15.53
2017-11-05T12:59:14.797Z,16.23
2017-11-05T13:01:44.779Z,16.90
2017-11-05T13:04:13.978Z,14.40
2017-11-05T13:06:43.224Z,12.37
2017-11-05T13:09:12.436Z,13.33
2017-11-05T13:11:42.454Z,14.60
2017-11-05T13:14:11.749Z,14.30
2017-11-05T13:16:40.980Z,15.13
2017-11-05T13:19:10.309Z,21.33
2017-11-05T13:21:39.539Z,15.97
2017-11-05T13:24:09.543Z,22.10
2017-11-05T13:26:38.929Z,20.60
2017-11-05T13:29:08.170Z,16.50
2017-11-05T13:31:38.181Z,16.27
2017-11-05T13:34:07.408Z,16.10
2017-11-05T13:36:36.662Z,17.80
2017-11-05T13:39:05.860Z,13.53
2017-11-05T13:41:35.889Z,10.87
2017-11-05T13:44:05.135Z,14.97
2017-11-05T13:46:34.635Z,13.30
2017-11-05T13:49:03.899Z,14.77
2017-11-05T13:51:33.244Z,27.73
2017-11-05T13:54:02.476Z,11.00
2017-11-05T13:56:31.715Z,15.43
2017-11-05T13:59:00.955Z,16.50
2017-11-05T14:01:30.213Z,16.97
2017-11-05T14:03:59.447Z,21.67
2017-11-05T14:06:28.687Z,9.83
2017-11-05T14:08:58.800Z,12.27
2017-11-05T14:11:28.957Z,11.63
2017-11-05T14:13:58.196Z,11.87
2017-11-05T14:16:27.448Z,10.80
2017-11-05T14:18:56.690Z,16.50
2017-11-05T14:21:25.931Z,12.83
2017-11-05T14:23:55.154Z,9.90
2017-11-05T14:26:24.372Z,10.73
2017-11-05T14:28:53.697Z,13.77
2017-11-05T14:31:22.936Z,9.73
2017-11-05T14:33:52.148Z,11.90
2017-11-05T14:36:21.367Z,8.70
2017-11-05T14:38:50.584Z,11.40
2017-11-05T14:41:19.805Z,11.50
2017-11-05T14:43:49.816Z,11.20
2017-11-05T14:46:19.796Z,9.87
2017-11-05T14:48:49.071Z,7.80
2017-11-05T14:51:18.315Z,12.00
2017-11-05T14:53:47.584Z,10.20
2017-11-05T14:56:16.832Z,8.47
2017-11-05T14:58:46.831Z,15.63
2017-11-05T15:01:16.055Z,6.63
2017-11-05T15:03:45.361Z,10.90
2017-11-05T15:06:14.749Z,10.13
2017-11-05T15:08:44.748Z,12.07
2017-11-05T15:11:14.738Z,14.33
2017-11-05T15:13:43.963Z,12.87
2017-11-05T15:16:13.168Z,11.50
2017-11-05T15:18:43.141Z,11.10
2017-11-05T15:21:12.414Z,12.40
2017-11-05T15:23:42.384Z,12.10
2017-11-05T15:26:11.631Z,10.53
2017-11-05T15:28:40.826Z,9.33
2017-11-05T15:31:10.050Z,7.60
2017-11-05T15:33:39.245Z,4.50
2017-11-05T15:36:08.431Z,9.73
2017-11-05T15:38:37.652Z,5.57
2017-11-05T15:41:06.879Z,10.77
2017-11-05T15:43:36.890Z,7.87
2017-11-05T15:46:06.844Z,9.10
2017-11-05T15:48:36.111Z,13.93
2017-11-05T15:51:06.070Z,5.90
2017-11-05T15:53:35.303Z,7.17
2017-11-05T15:56:04.667Z,6.27
2017-11-05T15:58:33.887Z,8.70
2017-11-05T16:01:03.121Z,8.37
2017-11-05T16:03:33.126Z,6.13
2017-11-05T16:06:02.359Z,10.20
2017-11-05T16:08:31.562Z,9.17
2017-11-05T16:11:00.772Z,10.77
2017-11-05T16:13:30.005Z,4.60
2017-11-05T16:15:59.220Z,8.30
2017-11-05T16:18:28.431Z,12.23
2017-11-05T16:20:57.659Z,8.57
2017-11-05T16:23:26.854Z,7.87
2017-11-05T16:25:56.125Z,9.53
2017-11-05T16:28:26.104Z,6.97
2017-11-05T16:30:55.447Z,7.50
2017-11-05T16:33:25.454Z,6.00
2017-11-05T16:35:55.437Z,5.40
2017-11-05T16:38:24.646Z,6.33
2017-11-05T16:40:54.693Z,6.00
2017-11-05T16:43:24.675Z,6.47
2017-11-05T16:45:53.943Z,6.07
2017-11-05T16:48:23.192Z,5.90
2017-11-05T16:50:52.383Z,5.83
2017-11-05T16:53:22.377Z,4.70
2017-11-05T16:55:51.611Z,4.33
2017-11-05T16:58:20.860Z,6.43
2017-11-05T17:00:50.440Z,6.83
2017-11-05T17:03:19.649Z,8.80
2017-11-05T17:05:48.881Z,7.17
2017-11-05T17:08:19.589Z,11.93
2017-11-05T17:10:49.595Z,10.20
2017-11-05T17:13:18.843Z,11.77
2017-11-05T17:15:48.116Z,10.27
2017-11-05T17:18:18.863Z,12.07
2017-11-05T17:20:48.139Z,13.03
2017-11-05T17:23:17.437Z,7.00
2017-11-05T17:25:46.609Z,10.50
2017-11-05T17:28:15.833Z,10.07
2017-11-05T17:30:45.055Z,7.27
2017-11-05T17:33:14.270Z,5.40
2017-11-05T17:35:43.477Z,16.23
2017-11-05T17:38:13.481Z,8.27
2017-11-05T17:40:43.460Z,5.40
2017-11-05T17:43:13.467Z,7.00
2017-11-05T17:45:42.678Z,9.90
2017-11-05T17:48:11.913Z,5.43
2017-11-05T17:50:41.915Z,5.63
2017-11-05T17:53:11.120Z,9.07
2017-11-05T17:55:41.112Z,5.93
2017-11-05T17:58:10.368Z,6.67
2017-11-05T18:00:39.591Z,10.10
2017-11-05T18:03:08.877Z,6.80
2017-11-05T18:05:38.141Z,9.60
2017-11-05T18:08:07.464Z,7.33
2017-11-05T18:10:36.663Z,7.90
2017-11-05T18:13:05.891Z,7.60
2017-11-05T18:15:35.116Z,9.07
2017-11-05T18:18:05.143Z,6.93
2017-11-05T18:20:35.245Z,9.93
2017-11-05T18:23:05.243Z,8.27
2017-11-05T18:25:34.467Z,11.03
2017-11-05T18:28:03.711Z,6.80
2017-11-05T18:30:32.949Z,8.03
2017-11-05T18:33:02.169Z,7.83
2017-11-05T18:35:32.157Z,7.53
2017-11-05T18:38:01.358Z,10.47
2017-11-05T18:40:30.562Z,8.17
2017-11-05T18:43:00.579Z,7.60
2017-11-05T18:45:29.780Z,9.17
2017-11-05T18:47:59.030Z,9.87
2017-11-05T18:50:28.272Z,10.43
2017-11-05T18:52:57.532Z,12.20
2017-11-05T18:55:26.775Z,7.93
2017-11-05T18:57:55.981Z,7.73
2017-11-05T19:00:26.010Z,11.07
2017-11-05T19:02:55.260Z,9.20
2017-11-05T19:05:24.516Z,12.70
2017-11-05T19:07:53.739Z,10.93
2017-11-05T19:10:22.949Z,13.50
2017-11-05T19:12:52.163Z,11.27
2017-11-05T19:15:21.442Z,15.57
2017-11-05T19:17:50.701Z,12.67
2017-11-05T19:20:19.949Z,18.07
2017-11-05T19:22:49.201Z,14.43
2017-11-05T19:25:18.422Z,13.70
2017-11-05T19:27:47.676Z,14.17
2017-11-05T19:30:17.669Z,18.20
2017-11-05T19:32:46.942Z,19.67
2017-11-05T19:35:16.144Z,18.53
2017-11-05T19:37:45.390Z,17.50
2017-11-05T19:40:15.426Z,20.10
2017-11-05T19:42:44.701Z,18.27
2017-11-05T19:45:14.711Z,17.57
2017-11-05T19:47:44.779Z,16.90
2017-11-05T19:50:14.033Z,19.23
2017-11-05T19:52:44.053Z,24.90
2017-11-05T19:55:14.075Z,20.37
2017-11-05T19:57:43.821Z,26.63
2017-11-05T20:00:13.926Z,20.37
2017-11-05T20:02:43.976Z,23.10
2017-11-05T20:05:13.266Z,23.20
2017-11-05T20:07:42.541Z,22.53
2017-11-05T20:10:11.745Z,22.97
2017-11-05T20:12:41.035Z,21.97
2017-11-05T20:15:10.267Z,23.67
2017-11-05T20:17:39.529Z,27.97
2017-11-05T20:20:08.790Z,23.30
2017-11-05T20:22:37.985Z,20.30
2017-11-05T20:25:07.250Z,25.50
2017-11-05T20:27:36.493Z,18.57
2017-11-05T20:30:06.484Z,20.27
2017-11-05T20:32:35.719Z,16.17
2017-11-05T20:35:05.711Z,18.03
2017-11-05T20:37:34.937Z,20.13
2017-11-05T20:40:04.193Z,17.70
2017-11-05T20:42:33.531Z,15.90
2017-11-05T20:45:03.547Z,16.73
2017-11-05T20:47:33.552Z,18.07
2017-11-05T20:50:02.792Z,16.50
2017-11-05T20:52:31.991Z,16.33
2017-11-05T20:55:01.237Z,17.80
2017-11-05T20:57:31.230Z,17.10
2017-11-05T21:00:00.733Z,14.83
2017-11-05T21:02:29.983Z,15.70
2017-11-05T21:04:59.214Z,15.20
2017-11-05T21:07:28.465Z,12.80
2017-11-05T21:09:58.482Z,13.67
2017-11-05T21:12:27.728Z,13.77
2017-11-05T21:14:57.715Z,14.37
2017-11-05T21:17:26.954Z,14.10
2017-11-05T21:19:56.167Z,12.27
2017-11-05T21:22:26.168Z,13.77
2017-11-05T21:24:55.383Z,11.73
2017-11-05T21:27:24.594Z,11.30
2017-11-05T21:29:54.578Z,11.07
2017-11-05T21:32:23.855Z,12.80
2017-11-05T21:34:53.098Z,13.33
2017-11-05T21:37:22.271Z,12.80
2017-11-05T21:39:51.504Z,11.70
2017-11-05T21:42:21.556Z,12.20
2017-11-05T21:44:50.800Z,11.07
2017-11-05T21:47:20.023Z,13.13
2017-11-05T21:49:50.051Z,12.80
2017-11-05T21:52:19.396Z,11.30
2017-11-05T21:54:48.623Z,11.23
2017-11-05T21:57:19.019Z,11.43
2017-11-05T21:59:48.260Z,16.53
2017-11-05T22:02:18.265Z,11.67
2017-11-05T22:04:48.319Z,15.60
2017-11-05T22:07:17.627Z,12.03
2017-11-05T22:09:46.815Z,11.57
2017-11-05T22:12:16.026Z,13.63
2017-11-05T22:14:45.272Z,12.77
2017-11-05T22:17:15.251Z,12.80
2017-11-05T22:19:44.487Z,12.53
2017-11-05T22:22:14.483Z,13.47
2017-11-05T22:24:43.706Z,16.00
2017-11-05T22:27:13.716Z,12.20
2017-11-05T22:29:43.734Z,13.63
2017-11-05T22:32:13.700Z,13.50
2017-11-05T22:34:42.976Z,15.03
2017-11-05T22:37:12.169Z,12.27
2017-11-05T22:39:41.411Z,15.40
2017-11-05T22:42:10.607Z,17.47
2017-11-05T22:44:39.849Z,15.37
2017-11-05T22:47:09.892Z,15.70
2017-11-05T22:49:39.335Z,18.10
2017-11-05T22:52:08.605Z,13.70
2017-11-05T22:54:37.845Z,14.60
2017-11-05T22:57:07.844Z,19.17
2017-11-05T22:59:38.588Z,16.40
2017-11-05T23:02:07.820Z,21.83
2017-11-05T23:04:37.784Z,20.83
2017-11-05T23:07:07.033Z,15.70
2017-11-05T23:09:37.152Z,16.03
2017-11-05T23:12:07.131Z,18.67
2017-11-05T23:14:36.344Z,18.77
2017-11-05T23:17:06.356Z,19.30
2017-11-05T23:19:35.627Z,15.20
2017-11-05T23:22:04.900Z,20.10
2017-11-05T23:24:34.120Z,22.23
2017-11-05T23:27:03.327Z,18.77
2017-11-05T23:29:32.546Z,20.33
2017-11-05T23:32:02.556Z,14.73
2017-11-05T23:34:31.743Z,18.93
2017-11-05T23:37:00.963Z,19.40
2017-11-05T23:39:31.027Z,21.23
2017-11-05T23:42:00.236Z,18.83
2017-11-05T23:44:29.450Z,22.00
2017-11-05T23:46:58.697Z,18.60
2017-11-05T23:49:27.909Z,18.40
2017-11-05T23:51:57.111Z,18.47
2017-11-05T23:54:26.319Z,23.43
2017-11-05T23:56:55.551Z,16.50
2017-11-05T23:59:25.535Z,21.80
